createdAt,value
2018-04-17T00:00:48.289Z,12.71
2018-04-17T00:03:15.782Z,12.71
2018-04-17T00:05:43.285Z,12.71
2018-04-17T00:08:10.770Z,12.71
2018-04-17T00:10:39.903Z,12.72
2018-04-17T00:13:08.055Z,12.71
2018-04-17T00:15:36.671Z,12.71
2018-04-17T00:18:05.519Z,12.72
2018-04-17T00:20:33.014Z,12.72
2018-04-17T00:23:00.494Z,12.73
2018-04-17T00:25:28.014Z,12.73
2018-04-17T00:27:56.658Z,12.73
2018-04-17T00:30:27.121Z,12.73
2018-04-17T00:32:55.821Z,12.74
2018-04-17T00:35:24.466Z,12.74
2018-04-17T00:37:51.980Z,12.74
2018-04-17T00:40:19.488Z,12.74
2018-04-17T00:42:46.973Z,12.74
2018-04-17T00:45:18.864Z,12.73
2018-04-17T00:47:50.881Z,12.73
2018-04-17T00:50:22.749Z,12.74
2018-04-17T00:52:54.619Z,12.73
2018-04-17T00:55:22.107Z,12.72
2018-04-17T00:57:49.565Z,12.74
2018-04-17T01:00:17.077Z,12.72
2018-04-17T01:02:44.581Z,12.72
2018-04-17T01:05:12.063Z,12.71
2018-04-17T01:07:51.996Z,12.71
2018-04-17T01:10:20.236Z,12.71
2018-04-17T01:12:47.726Z,12.71
2018-04-17T01:15:15.239Z,12.71
2018-04-17T01:17:42.738Z,12.69
2018-04-17T01:20:11.190Z,12.70
2018-04-17T01:22:39.794Z,12.69
2018-04-17T01:25:08.614Z,12.69
2018-04-17T01:30:07.982Z,12.69
2018-04-17T01:32:35.474Z,12.67
2018-04-17T01:35:02.946Z,12.67
2018-04-17T01:37:36.465Z,12.67
2018-04-17T01:40:06.818Z,12.68
2018-04-17T01:42:38.459Z,12.68
2018-04-17T01:45:10.263Z,12.68
2018-04-17T01:47:37.749Z,12.68
2018-04-17T01:50:05.250Z,12.67
2018-04-17T01:52:32.758Z,12.68
2018-04-17T01:55:00.487Z,12.67
2018-04-17T02:00:03.475Z,12.68
2018-04-17T02:02:36.298Z,12.68
2018-04-17T02:05:03.818Z,12.69
2018-04-17T02:07:31.284Z,12.69
2018-04-17T02:09:58.778Z,12.71
2018-04-17T02:12:27.590Z,12.71
2018-04-17T02:15:00.523Z,12.71
2018-04-17T02:17:30.725Z,12.72
2018-04-17T02:20:02.850Z,12.72
2018-04-17T02:22:30.350Z,12.72
2018-04-17T02:24:57.846Z,12.72
2018-04-17T02:27:25.367Z,12.72
2018-04-17T02:29:54.174Z,12.71
2018-04-17T02:35:34.156Z,12.71
2018-04-17T02:38:01.662Z,12.72
2018-04-17T02:40:29.223Z,12.70
2018-04-17T02:42:56.743Z,12.71
2018-04-17T02:45:24.280Z,12.70
2018-04-17T02:47:55.551Z,12.71
2018-04-17T02:50:39.094Z,12.70
2018-04-17T02:53:18.012Z,12.70
2018-04-17T02:55:47.814Z,12.70
2018-04-17T02:58:15.352Z,12.70
2018-04-17T03:00:42.866Z,12.69
2018-04-17T03:03:10.459Z,12.69
2018-04-17T03:05:51.203Z,12.68
2018-04-17T03:14:03.225Z,12.66
2018-04-17T03:16:30.760Z,12.64
2018-04-17T03:18:58.376Z,12.65
2018-04-17T03:21:30.485Z,12.65
2018-04-17T03:30:04.947Z,12.65
2018-04-17T03:32:33.335Z,12.63
2018-04-17T03:35:00.902Z,12.64
2018-04-17T03:37:28.535Z,12.65
2018-04-17T03:40:18.380Z,12.65
2018-04-17T03:45:35.070Z,12.67
2018-04-17T03:48:02.608Z,12.68
2018-04-17T03:50:30.110Z,12.68
2018-04-17T03:52:57.590Z,12.71
2018-04-17T03:55:25.696Z,12.72
2018-04-17T04:04:25.538Z,12.72
2018-04-17T04:06:53.068Z,12.73
2018-04-17T04:09:20.575Z,12.74
2018-04-17T04:11:48.192Z,12.75
2018-04-17T04:21:50.674Z,12.76
2018-04-17T04:24:30.151Z,12.76
2018-04-17T04:26:57.699Z,12.78
2018-04-17T04:29:25.314Z,12.78
2018-04-17T04:34:49.173Z,12.78
2018-04-17T04:37:26.525Z,12.79
2018-04-17T04:39:54.083Z,12.80
2018-04-17T04:42:21.627Z,12.80
2018-04-17T04:44:49.149Z,12.80
2018-04-17T04:56:03.815Z,12.83
2018-04-17T04:58:31.331Z,12.83
2018-04-17T05:00:58.871Z,12.83
2018-04-17T05:03:26.516Z,12.83
2018-04-17T05:10:34.927Z,12.84
2018-04-17T05:15:50.731Z,12.81
2018-04-17T05:18:21.297Z,12.80
2018-04-17T05:20:48.835Z,12.75
2018-04-17T05:33:53.778Z,12.52
2018-04-17T05:36:21.295Z,12.50
2018-04-17T05:38:48.878Z,12.46
2018-04-17T05:41:42.873Z,12.44
2018-04-17T05:47:32.043Z,12.42
2018-04-17T05:49:59.572Z,12.41
2018-04-17T05:52:27.176Z,12.41
2018-04-17T05:54:54.967Z,12.42
2018-04-17T05:57:22.627Z,12.39
2018-04-17T05:59:51.167Z,12.37
2018-04-17T06:02:27.117Z,12.37
2018-04-17T06:07:44.221Z,12.34
2018-04-17T06:10:11.740Z,12.33
2018-04-17T06:12:39.301Z,12.29
2018-04-17T06:20:17.066Z,12.25
2018-04-17T06:25:25.798Z,12.21
2018-04-17T06:27:53.307Z,12.20
2018-04-17T06:30:20.799Z,12.17
2018-04-17T06:32:51.155Z,12.14
2018-04-17T06:35:25.095Z,12.11
2018-04-17T06:37:52.658Z,12.12
2018-04-17T06:42:53.721Z,12.07
2018-04-17T06:45:21.247Z,12.05
2018-04-17T06:47:48.751Z,12.05
2018-04-17T06:50:16.328Z,12.03
2018-04-17T06:52:47.424Z,12.02
2018-04-17T06:58:44.790Z,11.99
2018-04-17T07:01:12.308Z,11.99
2018-04-17T07:03:39.794Z,11.98
2018-04-17T07:06:07.287Z,11.96
2018-04-17T07:13:47.846Z,11.94
2018-04-17T07:16:15.454Z,11.95
2018-04-17T07:18:42.942Z,11.94
2018-04-17T07:21:10.567Z,11.94
2018-04-17T07:23:38.067Z,11.95
2018-04-17T07:26:07.238Z,11.97
2018-04-17T07:28:34.770Z,11.99
2018-04-17T07:31:06.332Z,12.02
2018-04-17T07:33:33.826Z,12.02
2018-04-17T07:36:01.331Z,12.04
2018-04-17T07:38:28.923Z,12.05
2018-04-17T07:40:56.550Z,12.08
2018-04-17T07:43:43.244Z,12.11
2018-04-17T07:46:20.093Z,12.14
2018-04-17T07:48:54.647Z,12.16
2018-04-17T07:51:22.130Z,12.17
2018-04-17T07:53:49.660Z,12.15
2018-04-17T07:56:17.202Z,12.15
2018-04-17T07:58:45.455Z,12.14
2018-04-17T08:01:13.070Z,12.13
2018-04-17T08:03:43.124Z,12.12
2018-04-17T08:06:12.623Z,12.12
2018-04-17T08:08:40.121Z,12.12
2018-04-17T08:11:07.654Z,12.12
2018-04-17T08:13:35.231Z,12.12
2018-04-17T08:16:02.830Z,12.13
2018-04-17T08:24:27.584Z,12.16
2018-04-17T08:26:55.164Z,12.18
2018-04-17T08:29:22.692Z,12.20
2018-04-17T08:31:50.338Z,12.22
2018-04-17T08:43:02.561Z,12.27
2018-04-17T08:45:30.125Z,12.29
2018-04-17T08:47:58.506Z,12.32
2018-04-17T08:59:32.366Z,12.42
2018-04-17T09:02:00.039Z,12.45
2018-04-17T09:04:27.699Z,12.49
2018-04-17T09:06:56.600Z,12.50
2018-04-17T09:18:33.287Z,12.59
2018-04-17T09:21:02.777Z,12.60
2018-04-17T09:23:30.353Z,12.63
2018-04-17T09:35:18.156Z,12.73
2018-04-17T09:37:46.762Z,12.75
2018-04-17T09:40:14.349Z,12.78
2018-04-17T09:51:51.972Z,12.84
2018-04-17T09:54:19.551Z,12.87
2018-04-17T09:56:47.165Z,12.89
2018-04-17T10:08:23.647Z,12.89
2018-04-17T10:10:51.252Z,12.91
2018-04-17T10:13:18.835Z,12.92
2018-04-17T10:24:56.771Z,12.96
2018-04-17T10:27:24.381Z,12.97
2018-04-17T10:29:52.063Z,12.99
2018-04-17T10:41:46.477Z,13.05
2018-04-17T10:44:14.059Z,13.06
2018-04-17T10:46:41.703Z,13.07
2018-04-17T10:49:12.273Z,13.08
2018-04-17T11:00:49.071Z,13.11
2018-04-17T11:03:16.663Z,13.11
2018-04-17T11:05:44.229Z,13.12
2018-04-17T11:17:20.649Z,13.15
2018-04-17T11:19:48.232Z,13.16
2018-04-17T11:22:15.871Z,13.16
2018-04-17T11:36:40.406Z,13.22
2018-04-17T11:39:15.154Z,13.24
2018-04-17T12:09:21.548Z,13.42
2018-04-17T13:02:14.211Z,13.52
2018-04-17T14:26:37.385Z,13.86
2018-04-17T15:50:28.992Z,14.08
2018-04-17T15:52:58.250Z,14.09
2018-04-17T15:55:28.326Z,14.10
2018-04-17T16:10:27.461Z,14.11
2018-04-17T16:12:55.153Z,14.10
2018-04-17T16:24:30.941Z,14.07
2018-04-17T16:26:58.649Z,14.11
2018-04-17T16:29:26.359Z,14.12
2018-04-17T16:58:55.677Z,14.17
2018-04-17T20:58:03.291Z,13.44
2018-04-17T21:00:30.843Z,13.45
2018-04-17T21:02:59.447Z,13.47
2018-04-17T21:05:32.144Z,13.48
2018-04-17T21:08:12.385Z,13.49
2018-04-17T21:10:41.113Z,13.49
2018-04-17T21:13:08.804Z,13.51
2018-04-17T21:15:36.339Z,13.51
2018-04-17T21:18:04.015Z,13.52
2018-04-17T21:20:31.640Z,13.52
2018-04-17T21:26:01.958Z,13.54
2018-04-17T21:28:31.377Z,13.54
2018-04-17T21:30:58.963Z,13.55
2018-04-17T21:33:26.507Z,13.55
2018-04-17T21:35:54.079Z,13.55
2018-04-17T21:38:21.667Z,13.54
2018-04-17T21:43:28.717Z,13.53
2018-04-17T21:48:30.576Z,13.52
2018-04-17T21:50:58.206Z,13.52
2018-04-17T21:53:25.756Z,13.51
2018-04-17T21:55:53.704Z,13.50
2018-04-17T21:58:23.213Z,13.49
2018-04-17T22:00:53.290Z,13.48
2018-04-17T22:06:33.007Z,13.47
2018-04-17T22:09:00.556Z,13.45
2018-04-17T22:11:28.169Z,13.45
2018-04-17T22:13:59.178Z,13.43
2018-04-17T22:16:31.156Z,13.42
2018-04-17T22:21:36.095Z,13.41
2018-04-17T22:24:03.711Z,13.40
2018-04-17T22:26:32.373Z,13.39
2018-04-17T22:28:59.929Z,13.39
2018-04-17T22:31:36.129Z,13.38
2018-04-17T22:37:17.084Z,13.38
2018-04-17T22:39:44.654Z,13.37
2018-04-17T22:42:12.183Z,13.37
2018-04-17T22:44:39.770Z,13.35
2018-04-17T22:47:07.436Z,13.35
2018-04-17T22:49:39.016Z,13.34
2018-04-17T22:52:11.066Z,13.34
2018-04-17T22:54:43.372Z,13.33
2018-04-17T22:57:11.075Z,13.34
2018-04-17T22:59:38.643Z,13.33
2018-04-17T23:02:06.217Z,13.34
2018-04-17T23:04:33.751Z,13.34
2018-04-17T23:15:47.829Z,13.34
2018-04-17T23:18:15.501Z,13.34
2018-04-17T23:20:43.078Z,13.33
2018-04-17T23:31:12.247Z,13.35
2018-04-17T23:33:39.907Z,13.35
2018-04-17T23:36:07.455Z,13.36
2018-04-17T23:38:35.032Z,13.36
2018-04-17T23:43:56.369Z,13.38
2018-04-17T23:49:12.058Z,13.39
2018-04-17T23:51:39.623Z,13.40
2018-04-17T23:54:07.205Z,13.40
2018-04-17T23:56:35.813Z,13.40
